createdAt,value
2018-11-23T00:02:27.886Z,29.00
2018-11-23T00:04:58.843Z,29.27
2018-11-23T00:07:29.712Z,30.90
2018-11-23T00:10:00.910Z,30.37
2018-11-23T00:12:32.027Z,29.03
2018-11-23T00:15:03.340Z,31.90
2018-11-23T00:17:34.490Z,28.50
2018-11-23T00:20:07.505Z,29.60
2018-11-23T00:22:38.673Z,28.70
2018-11-23T00:25:12.562Z,28.33
2018-11-23T00:27:43.716Z,31.00
2018-11-23T00:30:26.636Z,30.30
2018-11-23T00:32:57.861Z,31.33
2018-11-23T00:35:30.193Z,30.00
2018-11-23T00:38:01.430Z,29.63
2018-11-23T00:40:33.070Z,30.37
2018-11-23T00:43:04.179Z,30.33
2018-11-23T00:45:35.751Z,29.10
2018-11-23T00:48:07.597Z,28.97
2018-11-23T00:50:38.580Z,29.47
2018-11-23T00:53:09.692Z,29.90
2018-11-23T00:55:40.796Z,30.10
2018-11-23T00:58:13.848Z,29.07
2018-11-23T01:00:45.019Z,29.97
2018-11-23T01:03:16.301Z,29.30
2018-11-23T01:05:48.310Z,27.10
2018-11-23T01:08:19.622Z,28.13
2018-11-23T01:10:50.891Z,29.57
2018-11-23T01:13:22.079Z,27.03
2018-11-23T01:15:53.155Z,30.53
2018-11-23T01:18:24.229Z,27.50
2018-11-23T01:20:55.340Z,29.73
2018-11-23T01:23:26.660Z,28.33
2018-11-23T01:25:57.787Z,28.60
2018-11-23T01:28:29.004Z,28.77
2018-11-23T01:31:00.059Z,29.17
2018-11-23T01:33:31.409Z,29.77
2018-11-23T01:36:03.350Z,30.23
2018-11-23T01:38:34.427Z,29.07
2018-11-23T01:41:05.974Z,30.43
2018-11-23T01:43:37.285Z,30.13
2018-11-23T01:46:08.551Z,29.87
2018-11-23T01:48:39.860Z,26.50
2018-11-23T01:51:11.089Z,27.07
2018-11-23T01:53:42.137Z,25.63
2018-11-23T01:56:13.362Z,23.20
2018-11-23T01:58:44.500Z,27.77
2018-11-23T02:01:16.362Z,27.40
2018-11-23T02:03:47.775Z,26.87
2018-11-23T02:06:18.900Z,26.00
2018-11-23T02:08:50.568Z,25.90
2018-11-23T02:11:22.379Z,27.33
2018-11-23T02:13:53.450Z,28.73
2018-11-23T02:16:24.564Z,27.77
2018-11-23T02:18:55.733Z,27.20
2018-11-23T02:21:26.931Z,26.27
2018-11-23T02:23:58.375Z,28.73
2018-11-23T02:26:29.248Z,26.17
2018-11-23T02:29:00.358Z,28.27
2018-11-23T02:31:32.210Z,29.60
2018-11-23T02:34:03.101Z,30.17
2018-11-23T02:36:34.056Z,31.07
2018-11-23T02:39:07.467Z,26.83
2018-11-23T02:41:38.496Z,28.30
2018-11-23T02:44:09.762Z,30.17
2018-11-23T02:46:41.207Z,27.23
2018-11-23T02:49:12.817Z,29.37
2018-11-23T02:51:44.012Z,29.20
2018-11-23T02:54:15.587Z,30.40
2018-11-23T02:56:47.690Z,27.57
2018-11-23T02:59:18.634Z,29.70
2018-11-23T03:01:49.568Z,30.57
2018-11-23T03:04:20.525Z,31.40
2018-11-23T03:06:51.801Z,32.23
2018-11-23T03:09:22.856Z,31.33
2018-11-23T03:11:54.191Z,31.57
2018-11-23T03:14:25.055Z,32.60
2018-11-23T03:16:56.116Z,32.67
2018-11-23T03:19:27.027Z,33.00
2018-11-23T03:21:58.288Z,32.13
2018-11-23T03:24:29.228Z,28.90
2018-11-23T03:27:00.716Z,31.43
2018-11-23T03:29:31.765Z,32.37
2018-11-23T03:32:02.683Z,34.17
2018-11-23T03:34:33.520Z,32.60
2018-11-23T03:37:04.545Z,31.90
2018-11-23T03:39:35.493Z,31.83
2018-11-23T03:42:06.651Z,34.23
2018-11-23T03:44:37.783Z,32.20
2018-11-23T03:47:08.778Z,34.17
2018-11-23T03:49:40.192Z,33.47
2018-11-23T03:52:11.120Z,35.20
2018-11-23T03:54:42.194Z,32.07
2018-11-23T03:57:13.259Z,33.97
2018-11-23T03:59:44.213Z,35.17
2018-11-23T04:02:15.204Z,33.47
2018-11-23T04:04:46.171Z,34.30
2018-11-23T04:07:17.060Z,32.20
2018-11-23T04:09:47.957Z,33.77
2018-11-23T04:12:19.022Z,33.00
2018-11-23T04:14:50.113Z,35.00
2018-11-23T04:17:21.335Z,35.53
2018-11-23T04:19:52.324Z,31.67
2018-11-23T04:22:23.367Z,34.20
2018-11-23T04:24:54.574Z,34.47
2018-11-23T04:27:25.606Z,34.10
2018-11-23T04:29:56.636Z,34.10
2018-11-23T04:32:27.791Z,34.20
2018-11-23T04:34:59.102Z,34.03
2018-11-23T04:37:30.037Z,35.03
2018-11-23T04:40:05.137Z,34.00
2018-11-23T04:42:36.450Z,33.67
2018-11-23T04:45:08.099Z,33.93
2018-11-23T04:47:42.752Z,33.73
2018-11-23T04:50:15.745Z,35.30
2018-11-23T04:53:02.107Z,33.97
2018-11-23T04:55:33.072Z,33.03
2018-11-23T04:58:04.108Z,34.80
2018-11-23T05:00:35.052Z,35.00
2018-11-23T05:03:06.286Z,34.80
2018-11-23T05:05:37.197Z,30.80
2018-11-23T05:08:11.176Z,34.37
2018-11-23T05:10:42.121Z,35.47
2018-11-23T05:13:12.981Z,34.17
2018-11-23T05:15:43.978Z,33.70
2018-11-23T05:18:14.990Z,34.40
2018-11-23T05:20:46.189Z,33.07
2018-11-23T05:23:17.251Z,33.17
2018-11-23T05:25:48.415Z,32.60
2018-11-23T05:28:19.436Z,33.07
2018-11-23T05:30:50.922Z,32.47
2018-11-23T05:33:21.851Z,33.93
2018-11-23T05:35:52.921Z,33.63
2018-11-23T05:38:24.129Z,30.93
2018-11-23T05:40:55.655Z,30.93
2018-11-23T05:43:26.699Z,31.67
2018-11-23T05:45:57.650Z,31.23
2018-11-23T05:48:28.516Z,33.27
2018-11-23T05:50:59.482Z,34.13
2018-11-23T05:53:30.433Z,33.77
2018-11-23T05:56:01.783Z,36.27
2018-11-23T05:58:32.652Z,33.73
2018-11-23T06:01:03.801Z,35.57
2018-11-23T06:03:35.096Z,34.97
2018-11-23T06:06:06.237Z,36.03
2018-11-23T06:08:37.335Z,32.87
2018-11-23T06:11:08.845Z,35.90
2018-11-23T06:13:40.532Z,34.13
2018-11-23T06:16:12.090Z,36.43
2018-11-23T06:18:43.144Z,36.07
2018-11-23T06:21:14.354Z,35.33
2018-11-23T06:23:45.512Z,35.67
2018-11-23T06:26:22.993Z,36.47
2018-11-23T06:28:54.641Z,35.60
2018-11-23T06:31:25.661Z,33.27
2018-11-23T06:33:56.829Z,33.73
2018-11-23T06:36:27.951Z,34.10
2018-11-23T06:38:59.031Z,31.93
2018-11-23T06:41:30.312Z,34.67
2018-11-23T06:44:01.895Z,33.53
2018-11-23T06:46:33.222Z,32.67
2018-11-23T06:49:04.625Z,32.33
2018-11-23T06:51:36.248Z,33.27
2018-11-23T06:54:08.550Z,32.30
2018-11-23T06:56:40.060Z,33.30
2018-11-23T06:59:11.250Z,33.47
2018-11-23T07:01:42.443Z,32.47
2018-11-23T07:04:13.680Z,33.57
2018-11-23T07:06:44.895Z,30.87
2018-11-23T07:09:16.302Z,32.87
2018-11-23T07:11:47.456Z,33.17
2018-11-23T07:14:18.590Z,32.47
2018-11-23T07:16:49.755Z,30.33
2018-11-23T07:19:20.762Z,31.40
2018-11-23T07:21:52.081Z,31.30
2018-11-23T07:24:23.090Z,31.03
2018-11-23T07:26:54.317Z,28.53
2018-11-23T07:29:25.463Z,30.20
2018-11-23T07:31:56.743Z,31.40
2018-11-23T07:34:28.117Z,31.60
2018-11-23T07:36:59.361Z,31.63
2018-11-23T07:40:25.570Z,32.00
2018-11-23T07:42:57.196Z,31.00
2018-11-23T07:45:28.656Z,29.13
2018-11-23T07:47:59.951Z,30.03
2018-11-23T07:50:31.105Z,28.47
2018-11-23T07:53:02.269Z,29.03
2018-11-23T07:55:33.544Z,30.10
2018-11-23T07:58:04.757Z,30.67
2018-11-23T08:00:35.938Z,29.70
2018-11-23T08:03:07.615Z,29.37
2018-11-23T08:05:39.112Z,30.23
2018-11-23T08:08:10.455Z,29.80
2018-11-23T08:10:40.272Z,29.87
2018-11-23T08:13:11.727Z,29.67
2018-11-23T08:15:42.981Z,29.53
2018-11-23T08:18:14.271Z,29.67
2018-11-23T08:20:45.546Z,30.67
2018-11-23T08:23:16.632Z,30.53
2018-11-23T08:25:47.821Z,32.10
2018-11-23T08:28:18.717Z,30.07
2018-11-23T08:30:49.786Z,29.83
2018-11-23T08:33:21.524Z,28.67
2018-11-23T08:35:52.828Z,28.33
2018-11-23T08:38:23.936Z,29.03
2018-11-23T08:40:55.169Z,28.77
2018-11-23T08:43:26.751Z,30.17
2018-11-23T08:45:57.867Z,31.10
2018-11-23T08:48:29.092Z,30.03
2018-11-23T08:51:00.231Z,29.93
2018-11-23T08:53:35.368Z,29.53
2018-11-23T08:56:07.077Z,28.20
2018-11-23T08:58:38.329Z,27.87
2018-11-23T09:01:09.602Z,28.17
2018-11-23T09:03:40.866Z,28.33
2018-11-23T09:06:12.115Z,28.80
2018-11-23T09:08:43.402Z,28.67
2018-11-23T09:11:14.732Z,27.50
2018-11-23T09:13:46.055Z,28.07
2018-11-23T09:16:17.212Z,27.90
2018-11-23T09:18:48.840Z,27.93
2018-11-23T09:21:20.388Z,28.13
2018-11-23T09:23:51.522Z,26.93
2018-11-23T09:26:22.821Z,25.83
2018-11-23T09:28:54.062Z,26.53
2018-11-23T09:31:25.974Z,27.93
2018-11-23T09:33:57.104Z,28.30
2018-11-23T09:36:28.485Z,27.10
2018-11-23T09:39:00.022Z,27.43
2018-11-23T09:41:31.655Z,27.57
2018-11-23T09:44:02.923Z,28.40
2018-11-23T09:46:33.967Z,29.40
2018-11-23T09:49:05.579Z,31.80
2018-11-23T09:51:36.710Z,28.43
2018-11-23T09:54:08.345Z,31.53
2018-11-23T09:56:39.806Z,30.07
2018-11-23T09:59:10.971Z,31.27
2018-11-23T10:01:42.634Z,28.77
2018-11-23T10:04:13.944Z,29.63
2018-11-23T10:06:45.258Z,28.10
2018-11-23T10:09:16.990Z,29.27
2018-11-23T10:11:47.984Z,30.03
2018-11-23T10:14:19.280Z,31.07
2018-11-23T10:16:50.559Z,28.63
2018-11-23T10:19:40.804Z,29.30
2018-11-23T10:22:12.148Z,28.43
2018-11-23T10:24:43.337Z,27.87
2018-11-23T10:27:14.595Z,28.13
2018-11-23T10:29:45.665Z,28.03
2018-11-23T10:32:17.153Z,28.37
2018-11-23T10:34:48.568Z,29.23
2018-11-23T10:37:19.704Z,28.97
2018-11-23T10:39:50.950Z,30.13
2018-11-23T10:42:22.145Z,28.30
2018-11-23T10:44:53.457Z,29.33
2018-11-23T10:47:24.509Z,28.27
2018-11-23T10:49:55.955Z,29.50
2018-11-23T10:52:26.989Z,28.60
2018-11-23T10:54:58.135Z,28.83
2018-11-23T10:57:29.418Z,29.53
2018-11-23T11:00:00.647Z,27.83
2018-11-23T11:02:44.922Z,28.50
2018-11-23T11:05:38.155Z,28.03
2018-11-23T11:08:09.801Z,28.60
2018-11-23T11:10:41.138Z,28.30
2018-11-23T11:13:12.431Z,27.80
2018-11-23T11:15:43.641Z,28.27
2018-11-23T11:18:14.838Z,27.23
2018-11-23T11:20:45.961Z,29.60
2018-11-23T11:23:17.178Z,31.03
2018-11-23T11:25:48.187Z,27.80
2018-11-23T11:28:19.532Z,29.07
2018-11-23T11:30:50.757Z,27.73
2018-11-23T11:33:21.945Z,29.60
2018-11-23T11:35:53.283Z,29.43
2018-11-23T11:38:24.432Z,30.13
2018-11-23T11:40:55.969Z,29.17
2018-11-23T11:43:27.001Z,28.47
2018-11-23T11:45:58.230Z,28.57
2018-11-23T11:48:29.324Z,30.73
2018-11-23T11:51:00.967Z,32.43
2018-11-23T11:53:32.016Z,30.63
2018-11-23T11:56:03.353Z,30.10
2018-11-23T11:58:34.435Z,31.40
2018-11-23T12:01:05.828Z,32.73
2018-11-23T12:03:37.269Z,33.13
2018-11-23T12:06:08.630Z,34.30
2018-11-23T12:08:39.840Z,33.43
2018-11-23T12:11:10.707Z,34.13
2018-11-23T12:13:41.569Z,33.20
2018-11-23T12:16:12.541Z,34.87
2018-11-23T12:18:44.281Z,30.83
2018-11-23T12:21:15.242Z,31.83
2018-11-23T12:23:46.400Z,28.60
2018-11-23T12:26:18.040Z,29.67
2018-11-23T12:28:49.436Z,30.07
2018-11-23T12:31:20.698Z,30.13
2018-11-23T12:33:52.454Z,28.70
2018-11-23T12:36:23.613Z,27.20
2018-11-23T12:38:54.678Z,26.07
2018-11-23T12:41:26.133Z,26.50
2018-11-23T12:43:57.460Z,24.03
2018-11-23T12:46:28.403Z,25.70
2018-11-23T12:48:59.340Z,26.43
2018-11-23T12:51:30.393Z,25.33
2018-11-23T12:54:01.353Z,26.50
2018-11-23T12:56:32.349Z,24.80
2018-11-23T12:59:03.220Z,24.93
2018-11-23T13:01:34.080Z,25.03
2018-11-23T13:04:05.552Z,25.83
2018-11-23T13:06:36.511Z,25.80
2018-11-23T13:09:09.758Z,25.40
2018-11-23T13:11:42.800Z,26.10
2018-11-23T13:14:13.864Z,25.93
2018-11-23T13:16:44.920Z,25.10
2018-11-23T13:19:15.896Z,26.87
2018-11-23T13:21:47.061Z,26.53
2018-11-23T13:24:18.226Z,26.10
2018-11-23T13:26:49.290Z,26.17
2018-11-23T13:29:20.418Z,24.37
2018-11-23T13:31:51.304Z,25.40
2018-11-23T13:34:22.817Z,23.57
2018-11-23T13:36:54.163Z,25.70
2018-11-23T13:39:25.149Z,23.60
2018-11-23T13:41:56.292Z,25.87
2018-11-23T13:44:27.282Z,24.70
2018-11-23T13:46:58.293Z,24.40
2018-11-23T13:49:29.728Z,24.63
2018-11-23T13:52:01.035Z,23.93
2018-11-23T13:54:32.245Z,24.23
2018-11-23T13:57:03.492Z,22.13
2018-11-23T13:59:34.687Z,21.90
2018-11-23T14:02:05.789Z,24.00
2018-11-23T14:04:37.107Z,22.87
2018-11-23T14:07:08.235Z,22.80
2018-11-23T14:09:39.417Z,22.47
2018-11-23T14:12:10.589Z,22.60
2018-11-23T14:14:41.907Z,20.97
2018-11-23T14:17:13.266Z,21.50
2018-11-23T14:19:44.118Z,19.83
2018-11-23T14:22:15.298Z,20.87
2018-11-23T14:24:46.250Z,20.17
2018-11-23T14:27:17.378Z,20.10
2018-11-23T14:29:48.236Z,22.53
2018-11-23T14:32:19.757Z,21.80
2018-11-23T14:34:51.531Z,20.97
2018-11-23T14:37:22.462Z,21.03
2018-11-23T14:39:53.538Z,20.00
2018-11-23T14:42:24.445Z,20.73
2018-11-23T14:44:55.420Z,20.27
2018-11-23T14:47:26.277Z,20.57
2018-11-23T14:49:57.319Z,20.53
2018-11-23T14:52:28.387Z,20.90
2018-11-23T14:54:59.756Z,20.60
2018-11-23T14:57:30.971Z,21.33
2018-11-23T15:00:02.065Z,22.23
2018-11-23T15:02:33.136Z,22.13
2018-11-23T15:05:04.262Z,23.47
2018-11-23T15:07:35.238Z,20.57
2018-11-23T15:10:11.920Z,22.40
2018-11-23T15:12:43.128Z,21.63
2018-11-23T15:15:16.293Z,20.93
2018-11-23T15:17:48.496Z,21.13
2018-11-23T15:20:24.808Z,20.80
2018-11-23T15:23:08.085Z,21.20
2018-11-23T15:25:39.415Z,21.47
2018-11-23T15:28:12.532Z,20.53
2018-11-23T15:30:44.309Z,21.23
2018-11-23T15:33:16.981Z,20.93
2018-11-23T15:35:48.810Z,22.13
2018-11-23T15:38:27.272Z,23.43
2018-11-23T15:40:58.579Z,21.70
2018-11-23T15:43:29.741Z,21.00
2018-11-23T15:46:00.824Z,22.17
2018-11-23T15:48:31.974Z,22.87
2018-11-23T15:51:09.791Z,22.43
2018-11-23T15:53:40.845Z,21.73
2018-11-23T15:56:11.983Z,22.40
2018-11-23T15:58:43.307Z,21.83
2018-11-23T16:01:14.537Z,21.00
2018-11-23T16:03:45.777Z,21.80
2018-11-23T16:06:16.827Z,21.67
2018-11-23T16:08:48.025Z,21.17
2018-11-23T16:11:18.965Z,20.87
2018-11-23T16:13:50.634Z,20.03
2018-11-23T16:16:22.473Z,21.43
2018-11-23T16:18:53.465Z,21.60
2018-11-23T16:21:24.722Z,21.03
2018-11-23T16:23:55.644Z,21.93
2018-11-23T16:26:26.653Z,21.53
2018-11-23T16:28:57.977Z,21.03
2018-11-23T16:31:29.116Z,21.57
2018-11-23T16:34:00.303Z,21.60
2018-11-23T16:36:31.415Z,22.03
2018-11-23T16:39:02.584Z,20.63
2018-11-23T16:41:33.709Z,22.13
2018-11-23T16:44:04.898Z,22.43
2018-11-23T16:46:36.392Z,20.63
2018-11-23T16:49:07.554Z,21.30
2018-11-23T16:51:38.615Z,20.43
2018-11-23T16:54:09.595Z,21.20
2018-11-23T16:56:45.718Z,21.73
2018-11-23T16:59:16.991Z,21.47
2018-11-23T17:01:48.737Z,20.57
2018-11-23T17:04:20.217Z,20.20
2018-11-23T17:06:51.448Z,20.57
2018-11-23T17:09:22.696Z,20.93
2018-11-23T17:14:26.940Z,22.17
2018-11-23T17:17:01.922Z,20.03
2018-11-23T17:19:34.118Z,20.67
2018-11-23T17:22:14.806Z,22.20
2018-11-23T17:24:46.841Z,21.80
2018-11-23T17:27:18.317Z,20.57
2018-11-23T17:29:49.306Z,20.83
2018-11-23T17:32:21.009Z,19.67
2018-11-23T17:34:52.725Z,21.33
2018-11-23T17:37:23.901Z,21.37
2018-11-23T17:39:57.665Z,26.87
2018-11-23T17:42:28.772Z,19.83
2018-11-23T17:45:00.216Z,22.13
2018-11-23T17:47:31.407Z,21.40
2018-11-23T17:50:02.280Z,21.40
2018-11-23T17:52:33.554Z,20.77
2018-11-23T17:55:04.643Z,21.33
2018-11-23T17:57:36.007Z,20.97
2018-11-23T18:00:11.021Z,20.23
2018-11-23T18:02:42.285Z,20.47
2018-11-23T18:05:14.996Z,21.37
2018-11-23T18:07:46.197Z,21.53
2018-11-23T18:10:36.402Z,22.20
2018-11-23T18:13:07.750Z,21.73
2018-11-23T18:15:38.845Z,21.27
2018-11-23T18:18:10.341Z,22.13
2018-11-23T18:20:42.525Z,22.23
2018-11-23T18:23:14.092Z,23.17
2018-11-23T18:25:45.568Z,23.73
2018-11-23T18:28:16.784Z,25.27
2018-11-23T18:30:48.291Z,24.27
2018-11-23T18:33:19.493Z,25.03
2018-11-23T18:35:50.564Z,25.07
2018-11-23T18:38:21.909Z,24.30
2018-11-23T18:40:53.109Z,24.83
2018-11-23T18:43:24.320Z,24.30
2018-11-23T18:45:55.467Z,24.77
2018-11-23T18:48:26.587Z,25.57
2018-11-23T18:50:57.730Z,26.17
2018-11-23T18:53:28.874Z,25.90
2018-11-23T18:56:00.321Z,25.40
2018-11-23T18:58:31.651Z,25.40
2018-11-23T19:01:02.766Z,26.07
2018-11-23T19:03:34.025Z,24.60
2018-11-23T19:06:05.329Z,24.13
2018-11-23T19:08:36.804Z,25.50
2018-11-23T19:11:08.621Z,24.30
2018-11-23T19:13:39.668Z,25.67
2018-11-23T19:16:11.519Z,23.63
2018-11-23T19:18:42.804Z,23.60
2018-11-23T19:21:13.874Z,23.50
2018-11-23T19:23:45.061Z,23.70
2018-11-23T19:26:16.616Z,21.73
2018-11-23T19:28:48.168Z,22.80
2018-11-23T19:31:19.429Z,23.87
2018-11-23T19:33:50.887Z,23.80
2018-11-23T19:36:22.327Z,22.50
2018-11-23T19:38:53.541Z,21.53
2018-11-23T19:41:26.060Z,23.10
2018-11-23T19:43:56.931Z,21.53
2018-11-23T19:46:28.158Z,22.20
2018-11-23T19:48:59.685Z,22.30
2018-11-23T19:51:31.030Z,22.03
2018-11-23T19:54:02.002Z,20.37
2018-11-23T19:56:33.245Z,21.73
2018-11-23T19:59:04.454Z,20.60
2018-11-23T20:01:35.961Z,21.67
2018-11-23T20:04:07.614Z,21.53
2018-11-23T20:06:42.864Z,22.93
2018-11-23T20:09:12.298Z,22.07
2018-11-23T20:11:43.454Z,22.50
2018-11-23T20:14:15.283Z,21.93
2018-11-23T20:16:46.675Z,23.87
2018-11-23T20:19:18.035Z,24.13
2018-11-23T20:21:49.501Z,24.30
2018-11-23T20:24:20.805Z,24.27
2018-11-23T20:26:52.141Z,23.70
2018-11-23T20:29:23.651Z,23.70
2018-11-23T20:31:55.181Z,23.70
2018-11-23T20:34:27.880Z,25.50
2018-11-23T20:36:59.610Z,25.57
2018-11-23T20:39:31.098Z,23.63
2018-11-23T20:42:02.367Z,24.10
2018-11-23T20:44:33.902Z,26.50
2018-11-23T20:47:05.010Z,25.23
2018-11-23T20:49:36.445Z,25.37
2018-11-23T20:52:07.927Z,25.40
2018-11-23T20:54:39.115Z,26.30
2018-11-23T20:57:10.480Z,25.10
2018-11-23T20:59:41.610Z,26.30
2018-11-23T21:02:12.790Z,25.70
2018-11-23T21:04:44.338Z,25.33
2018-11-23T21:07:15.360Z,25.93
2018-11-23T21:09:46.505Z,26.63
2018-11-23T21:12:17.816Z,26.07
2018-11-23T21:14:49.058Z,24.67
2018-11-23T21:17:21.018Z,24.97
2018-11-23T21:19:52.264Z,24.67
2018-11-23T21:22:23.648Z,25.00
2018-11-23T21:24:55.338Z,24.80
2018-11-23T21:27:26.537Z,26.80
2018-11-23T21:29:58.431Z,26.87
2018-11-23T21:32:30.135Z,26.80
2018-11-23T21:35:01.577Z,26.40
2018-11-23T21:37:33.026Z,27.50
2018-11-23T21:40:04.583Z,28.07
2018-11-23T21:42:36.124Z,28.60
2018-11-23T21:45:09.303Z,27.77
2018-11-23T21:47:40.761Z,27.27
2018-11-23T21:50:14.171Z,28.83
2018-11-23T21:52:46.063Z,27.53
2018-11-23T21:55:26.819Z,27.37
2018-11-23T21:57:58.584Z,29.07
2018-11-23T22:00:30.115Z,29.40
2018-11-23T22:03:01.989Z,30.10
2018-11-23T22:05:33.334Z,29.23
2018-11-23T22:08:04.991Z,29.23
2018-11-23T22:10:36.175Z,29.50
2018-11-23T22:13:07.864Z,30.00
2018-11-23T22:15:38.965Z,27.73
2018-11-23T22:18:10.408Z,27.07
2018-11-23T22:20:41.540Z,28.83
2018-11-23T22:23:12.791Z,29.47
2018-11-23T22:25:43.740Z,29.17
2018-11-23T22:28:15.105Z,28.97
2018-11-23T22:30:46.152Z,28.53
2018-11-23T22:33:17.675Z,28.07
2018-11-23T22:35:49.187Z,29.23
2018-11-23T22:38:20.438Z,29.13
2018-11-23T22:40:51.940Z,27.93
2018-11-23T22:43:23.127Z,28.07
2018-11-23T22:45:54.794Z,28.10
2018-11-23T22:48:26.267Z,28.07
2018-11-23T22:50:57.335Z,28.80
2018-11-23T22:53:28.419Z,28.93
2018-11-23T22:55:59.787Z,28.77
2018-11-23T22:58:30.829Z,28.60
2018-11-23T23:01:05.122Z,28.43
2018-11-23T23:03:36.223Z,27.37
2018-11-23T23:06:07.538Z,28.20
2018-11-23T23:08:38.576Z,28.20
2018-11-23T23:11:09.753Z,27.60
2018-11-23T23:13:41.110Z,27.30
2018-11-23T23:16:12.387Z,27.57
2018-11-23T23:18:43.823Z,27.53
2018-11-23T23:21:15.295Z,28.13
2018-11-23T23:23:46.330Z,28.57
2018-11-23T23:26:17.351Z,28.87
2018-11-23T23:28:48.853Z,28.10
2018-11-23T23:31:20.099Z,28.60
2018-11-23T23:33:51.578Z,27.33
2018-11-23T23:36:22.876Z,26.60
2018-11-23T23:38:54.062Z,26.03
2018-11-23T23:41:25.671Z,27.40
2018-11-23T23:43:56.703Z,26.80
2018-11-23T23:46:27.780Z,28.10
2018-11-23T23:48:59.209Z,27.47
2018-11-23T23:51:30.514Z,28.33
2018-11-23T23:54:02.002Z,27.80
2018-11-23T23:56:33.260Z,26.63
2018-11-23T23:59:04.525Z,27.53
